sensor_id;sensor_type;location;lat;lon;timestamp;P1;durP1;ratioP1;P2;durP2;ratioP2
10497;SDS011;5296;51.060;13.750;2024-02-23T00:02:20;1.80;;;1.70;;
10497;SDS011;5296;51.060;13.750;2024-02-23T00:07:22;1.65;;;1.55;;
10497;SDS011;5296;51.060;13.750;2024-02-23T00:12:23;1.63;;;1.52;;
10497;SDS011;5296;51.060;13.750;2024-02-23T00:17:25;1.83;;;1.73;;
10497;SDS011;5296;51.060;13.750;2024-02-23T00:22:27;1.48;;;1.38;;
10497;SDS011;5296;51.060;13.750;2024-02-23T00:27:29;1.67;;;1.58;;
10497;SDS011;5296;51.060;13.750;2024-02-23T00:32:30;1.25;;;1.20;;
10497;SDS011;5296;51.060;13.750;2024-02-23T00:37:32;1.40;;;1.30;;
10497;SDS011;5296;51.060;13.750;2024-02-23T00:42:37;1.20;;;1.20;;
10497;SDS011;5296;51.060;13.750;2024-02-23T00:47:38;0.90;;;0.90;;
10497;SDS011;5296;51.060;13.750;2024-02-23T00:52:40;0.82;;;0.82;;
10497;SDS011;5296;51.060;13.750;2024-02-23T00:57:42;2.35;;;0.80;;
10497;SDS011;5296;51.060;13.750;2024-02-23T01:02:44;0.60;;;0.60;;
10497;SDS011;5296;51.060;13.750;2024-02-23T01:07:46;0.65;;;0.57;;
10497;SDS011;5296;51.060;13.750;2024-02-23T01:12:47;0.73;;;0.70;;
10497;SDS011;5296;51.060;13.750;2024-02-23T01:17:49;0.70;;;0.70;;
10497;SDS011;5296;51.060;13.750;2024-02-23T01:22:51;1.13;;;0.80;;
10497;SDS011;5296;51.060;13.750;2024-02-23T01:27:52;0.70;;;0.70;;
10497;SDS011;5296;51.060;13.750;2024-02-23T01:32:54;0.57;;;0.57;;
10497;SDS011;5296;51.060;13.750;2024-02-23T01:37:56;0.77;;;0.60;;
10497;SDS011;5296;51.060;13.750;2024-02-23T01:43:01;0.88;;;0.70;;
10497;SDS011;5296;51.060;13.750;2024-02-23T01:48:04;0.85;;;0.63;;
10497;SDS011;5296;51.060;13.750;2024-02-23T01:53:06;0.50;;;0.50;;
10497;SDS011;5296;51.060;13.750;2024-02-23T01:58:07;0.60;;;0.60;;
10497;SDS011;5296;51.060;13.750;2024-02-23T02:03:09;0.60;;;0.60;;
10497;SDS011;5296;51.060;13.750;2024-02-23T02:08:13;0.65;;;0.65;;
10497;SDS011;5296;51.060;13.750;2024-02-23T02:13:15;0.60;;;0.52;;
10497;SDS011;5296;51.060;13.750;2024-02-23T02:18:17;0.85;;;0.45;;
10497;SDS011;5296;51.060;13.750;2024-02-23T02:23:18;1.35;;;0.60;;
10497;SDS011;5296;51.060;13.750;2024-02-23T02:28:20;0.88;;;0.60;;
10497;SDS011;5296;51.060;13.750;2024-02-23T02:33:22;1.05;;;0.60;;
10497;SDS011;5296;51.060;13.750;2024-02-23T02:38:24;0.60;;;0.60;;
10497;SDS011;5296;51.060;13.750;2024-02-23T02:43:26;0.70;;;0.70;;
10497;SDS011;5296;51.060;13.750;2024-02-23T02:48:28;0.60;;;0.60;;
10497;SDS011;5296;51.060;13.750;2024-02-23T02:53:30;0.70;;;0.70;;
10497;SDS011;5296;51.060;13.750;2024-02-23T02:58:32;0.60;;;0.57;;
10497;SDS011;5296;51.060;13.750;2024-02-23T03:03:34;0.70;;;0.70;;
10497;SDS011;5296;51.060;13.750;2024-02-23T03:08:36;0.70;;;0.70;;
10497;SDS011;5296;51.060;13.750;2024-02-23T03:13:37;0.88;;;0.70;;
10497;SDS011;5296;51.060;13.750;2024-02-23T03:18:39;0.77;;;0.70;;
10497;SDS011;5296;51.060;13.750;2024-02-23T03:23:41;0.75;;;0.57;;
10497;SDS011;5296;51.060;13.750;2024-02-23T03:28:47;0.57;;;0.55;;
10497;SDS011;5296;51.060;13.750;2024-02-23T03:33:50;1.45;;;0.80;;
10497;SDS011;5296;51.060;13.750;2024-02-23T03:38:51;0.70;;;0.70;;
10497;SDS011;5296;51.060;13.750;2024-02-23T03:43:53;0.60;;;0.60;;
10497;SDS011;5296;51.060;13.750;2024-02-23T03:48:55;0.73;;;0.73;;
10497;SDS011;5296;51.060;13.750;2024-02-23T03:53:57;0.70;;;0.60;;
10497;SDS011;5296;51.060;13.750;2024-02-23T03:58:59;0.77;;;0.60;;
10497;SDS011;5296;51.060;13.750;2024-02-23T04:04:01;2.47;;;0.65;;
10497;SDS011;5296;51.060;13.750;2024-02-23T04:09:02;2.08;;;0.68;;
10497;SDS011;5296;51.060;13.750;2024-02-23T04:14:06;0.57;;;0.57;;
10497;SDS011;5296;51.060;13.750;2024-02-23T04:19:08;0.40;;;0.40;;
10497;SDS011;5296;51.060;13.750;2024-02-23T04:24:13;1.23;;;0.88;;
10497;SDS011;5296;51.060;13.750;2024-02-23T04:29:15;0.73;;;0.47;;
10497;SDS011;5296;51.060;13.750;2024-02-23T04:34:17;1.48;;;0.77;;
10497;SDS011;5296;51.060;13.750;2024-02-23T04:39:18;0.98;;;0.70;;
10497;SDS011;5296;51.060;13.750;2024-02-23T04:44:21;0.50;;;0.50;;
10497;SDS011;5296;51.060;13.750;2024-02-23T04:49:23;1.80;;;0.60;;
10497;SDS011;5296;51.060;13.750;2024-02-23T04:54:24;0.60;;;0.60;;
10497;SDS011;5296;51.060;13.750;2024-02-23T04:59:26;0.90;;;0.60;;
10497;SDS011;5296;51.060;13.750;2024-02-23T05:04:29;0.57;;;0.50;;
10497;SDS011;5296;51.060;13.750;2024-02-23T05:09:31;0.57;;;0.57;;
10497;SDS011;5296;51.060;13.750;2024-02-23T05:14:33;1.10;;;0.60;;
10497;SDS011;5296;51.060;13.750;2024-02-23T05:19:35;0.95;;;0.70;;
10497;SDS011;5296;51.060;13.750;2024-02-23T05:24:37;0.60;;;0.60;;
10497;SDS011;5296;51.060;13.750;2024-02-23T05:29:38;1.50;;;0.68;;
10497;SDS011;5296;51.060;13.750;2024-02-23T05:34:40;1.80;;;0.70;;
10497;SDS011;5296;51.060;13.750;2024-02-23T05:39:42;1.70;;;0.80;;
10497;SDS011;5296;51.060;13.750;2024-02-23T05:44:47;2.35;;;0.90;;
10497;SDS011;5296;51.060;13.750;2024-02-23T05:49:50;2.58;;;0.70;;
10497;SDS011;5296;51.060;13.750;2024-02-23T05:54:52;0.43;;;0.43;;
10497;SDS011;5296;51.060;13.750;2024-02-23T05:59:57;1.52;;;0.65;;
10497;SDS011;5296;51.060;13.750;2024-02-23T06:04:58;1.50;;;0.60;;
10497;SDS011;5296;51.060;13.750;2024-02-23T06:10:00;0.70;;;0.65;;
10497;SDS011;5296;51.060;13.750;2024-02-23T06:15:02;1.05;;;0.60;;
10497;SDS011;5296;51.060;13.750;2024-02-23T06:20:04;1.23;;;0.60;;
10497;SDS011;5296;51.060;13.750;2024-02-23T06:25:08;2.35;;;0.70;;
10497;SDS011;5296;51.060;13.750;2024-02-23T06:30:10;0.57;;;0.57;;
10497;SDS011;5296;51.060;13.750;2024-02-23T06:35:12;1.35;;;0.80;;
10497;SDS011;5296;51.060;13.750;2024-02-23T06:40:15;1.00;;;0.70;;
10497;SDS011;5296;51.060;13.750;2024-02-23T06:45:16;0.70;;;0.68;;
10497;SDS011;5296;51.060;13.750;2024-02-23T06:50:18;0.93;;;0.70;;
10497;SDS011;5296;51.060;13.750;2024-02-23T06:55:20;0.82;;;0.65;;
10497;SDS011;5296;51.060;13.750;2024-02-23T07:00:22;1.45;;;0.80;;
10497;SDS011;5296;51.060;13.750;2024-02-23T07:05:23;3.30;;;0.90;;
10497;SDS011;5296;51.060;13.750;2024-02-23T07:10:25;0.75;;;0.75;;
10497;SDS011;5296;51.060;13.750;2024-02-23T07:15:27;1.67;;;0.88;;
10497;SDS011;5296;51.060;13.750;2024-02-23T07:20:28;2.25;;;0.80;;
10497;SDS011;5296;51.060;13.750;2024-02-23T07:25:30;1.60;;;0.70;;
10497;SDS011;5296;51.060;13.750;2024-02-23T07:30:32;1.45;;;0.90;;
10497;SDS011;5296;51.060;13.750;2024-02-23T07:35:33;1.52;;;0.82;;
10497;SDS011;5296;51.060;13.750;2024-02-23T07:40:35;1.83;;;0.90;;
10497;SDS011;5296;51.060;13.750;2024-02-23T07:45:37;0.90;;;0.70;;
10497;SDS011;5296;51.060;13.750;2024-02-23T07:50:39;1.25;;;0.70;;
10497;SDS011;5296;51.060;13.750;2024-02-23T07:55:40;0.70;;;0.70;;
10497;SDS011;5296;51.060;13.750;2024-02-23T08:00:42;0.93;;;0.80;;
10497;SDS011;5296;51.060;13.750;2024-02-23T08:05:44;2.05;;;0.88;;
10497;SDS011;5296;51.060;13.750;2024-02-23T08:10:46;1.45;;;0.90;;
10497;SDS011;5296;51.060;13.750;2024-02-23T08:15:48;1.42;;;0.70;;
10497;SDS011;5296;51.060;13.750;2024-02-23T08:20:49;1.40;;;0.85;;
10497;SDS011;5296;51.060;13.750;2024-02-23T08:25:51;0.85;;;0.70;;
10497;SDS011;5296;51.060;13.750;2024-02-23T08:30:55;0.85;;;0.57;;
10497;SDS011;5296;51.060;13.750;2024-02-23T08:35:56;2.33;;;0.80;;
10497;SDS011;5296;51.060;13.750;2024-02-23T08:40:58;1.08;;;0.77;;
10497;SDS011;5296;51.060;13.750;2024-02-23T08:46:00;1.38;;;0.73;;
10497;SDS011;5296;51.060;13.750;2024-02-23T08:51:08;1.73;;;0.60;;
10497;SDS011;5296;51.060;13.750;2024-02-23T08:56:11;2.95;;;0.80;;
10497;SDS011;5296;51.060;13.750;2024-02-23T09:01:13;0.93;;;0.90;;
10497;SDS011;5296;51.060;13.750;2024-02-23T09:06:15;1.45;;;0.82;;
10497;SDS011;5296;51.060;13.750;2024-02-23T09:11:17;2.60;;;1.08;;
10497;SDS011;5296;51.060;13.750;2024-02-23T09:16:18;1.10;;;0.95;;
10497;SDS011;5296;51.060;13.750;2024-02-23T09:21:22;1.20;;;1.00;;
10497;SDS011;5296;51.060;13.750;2024-02-23T09:26:23;1.27;;;0.95;;
10497;SDS011;5296;51.060;13.750;2024-02-23T09:31:25;1.25;;;0.70;;
10497;SDS011;5296;51.060;13.750;2024-02-23T09:36:29;2.15;;;0.80;;
10497;SDS011;5296;51.060;13.750;2024-02-23T09:41:31;1.15;;;0.70;;
10497;SDS011;5296;51.060;13.750;2024-02-23T09:46:33;2.45;;;0.80;;
10497;SDS011;5296;51.060;13.750;2024-02-23T09:51:37;1.23;;;0.80;;
10497;SDS011;5296;51.060;13.750;2024-02-23T09:56:40;0.98;;;0.75;;
10497;SDS011;5296;51.060;13.750;2024-02-23T10:01:42;0.65;;;0.65;;
10497;SDS011;5296;51.060;13.750;2024-02-23T10:06:44;1.17;;;0.85;;
10497;SDS011;5296;51.060;13.750;2024-02-23T10:11:46;1.77;;;1.00;;
10497;SDS011;5296;51.060;13.750;2024-02-23T10:16:53;0.60;;;0.50;;
10497;SDS011;5296;51.060;13.750;2024-02-23T10:21:56;2.00;;;1.10;;
10497;SDS011;5296;51.060;13.750;2024-02-23T10:27:00;1.65;;;0.60;;
10497;SDS011;5296;51.060;13.750;2024-02-23T10:32:01;0.75;;;0.60;;
10497;SDS011;5296;51.060;13.750;2024-02-23T10:37:04;1.02;;;0.70;;
10497;SDS011;5296;51.060;13.750;2024-02-23T10:42:09;1.77;;;0.70;;
10497;SDS011;5296;51.060;13.750;2024-02-23T10:47:11;2.15;;;0.68;;
10497;SDS011;5296;51.060;13.750;2024-02-23T10:52:13;1.20;;;0.60;;
10497;SDS011;5296;51.060;13.750;2024-02-23T10:57:17;0.90;;;0.70;;
10497;SDS011;5296;51.060;13.750;2024-02-23T11:02:20;1.65;;;0.68;;
10497;SDS011;5296;51.060;13.750;2024-02-23T11:07:23;1.80;;;0.98;;
10497;SDS011;5296;51.060;13.750;2024-02-23T11:12:29;0.77;;;0.70;;
10497;SDS011;5296;51.060;13.750;2024-02-23T11:17:31;2.00;;;1.08;;
10497;SDS011;5296;51.060;13.750;2024-02-23T11:22:34;0.75;;;0.75;;
10497;SDS011;5296;51.060;13.750;2024-02-23T11:27:40;1.60;;;1.10;;
10497;SDS011;5296;51.060;13.750;2024-02-23T11:32:45;1.63;;;0.98;;
10497;SDS011;5296;51.060;13.750;2024-02-23T11:37:54;0.85;;;0.80;;
10497;SDS011;5296;51.060;13.750;2024-02-23T11:43:00;1.90;;;0.80;;
10497;SDS011;5296;51.060;13.750;2024-02-23T11:48:02;1.80;;;0.90;;
10497;SDS011;5296;51.060;13.750;2024-02-23T11:53:06;1.63;;;0.80;;
10497;SDS011;5296;51.060;13.750;2024-02-23T11:58:08;0.98;;;0.80;;
10497;SDS011;5296;51.060;13.750;2024-02-23T12:03:18;1.25;;;0.80;;
10497;SDS011;5296;51.060;13.750;2024-02-23T12:08:21;1.45;;;0.80;;
10497;SDS011;5296;51.060;13.750;2024-02-23T12:13:23;0.80;;;0.60;;
10497;SDS011;5296;51.060;13.750;2024-02-23T12:18:25;0.82;;;0.70;;
10497;SDS011;5296;51.060;13.750;2024-02-23T12:28:42;1.05;;;0.85;;
10497;SDS011;5296;51.060;13.750;2024-02-23T12:33:44;0.73;;;0.73;;
10497;SDS011;5296;51.060;13.750;2024-02-23T12:38:50;1.23;;;0.85;;
10497;SDS011;5296;51.060;13.750;2024-02-23T12:43:52;1.02;;;0.80;;
10497;SDS011;5296;51.060;13.750;2024-02-23T12:48:54;1.95;;;0.70;;
10497;SDS011;5296;51.060;13.750;2024-02-23T12:53:56;1.95;;;0.93;;
10497;SDS011;5296;51.060;13.750;2024-02-23T12:58:58;1.77;;;0.70;;
10497;SDS011;5296;51.060;13.750;2024-02-23T13:04:00;0.85;;;0.70;;
10497;SDS011;5296;51.060;13.750;2024-02-23T13:09:02;3.53;;;0.93;;
10497;SDS011;5296;51.060;13.750;2024-02-23T13:14:04;1.63;;;0.90;;
10497;SDS011;5296;51.060;13.750;2024-02-23T13:19:06;1.10;;;0.77;;
10497;SDS011;5296;51.060;13.750;2024-02-23T13:24:08;0.82;;;0.82;;
10497;SDS011;5296;51.060;13.750;2024-02-23T13:29:09;1.40;;;0.80;;
10497;SDS011;5296;51.060;13.750;2024-02-23T13:34:11;1.17;;;0.88;;
10497;SDS011;5296;51.060;13.750;2024-02-23T13:39:13;1.02;;;0.60;;
10497;SDS011;5296;51.060;13.750;2024-02-23T13:44:15;1.58;;;0.90;;
10497;SDS011;5296;51.060;13.750;2024-02-23T13:49:17;1.38;;;1.00;;
10497;SDS011;5296;51.060;13.750;2024-02-23T13:54:18;1.85;;;0.95;;
10497;SDS011;5296;51.060;13.750;2024-02-23T13:59:20;2.17;;;0.70;;
10497;SDS011;5296;51.060;13.750;2024-02-23T14:04:22;1.60;;;0.80;;
10497;SDS011;5296;51.060;13.750;2024-02-23T14:09:24;2.28;;;0.73;;
10497;SDS011;5296;51.060;13.750;2024-02-23T14:14:26;2.10;;;1.10;;
10497;SDS011;5296;51.060;13.750;2024-02-23T14:19:27;0.90;;;0.80;;
10497;SDS011;5296;51.060;13.750;2024-02-23T14:24:29;3.22;;;1.13;;
10497;SDS011;5296;51.060;13.750;2024-02-23T14:29:31;2.42;;;1.00;;
10497;SDS011;5296;51.060;13.750;2024-02-23T14:34:33;1.88;;;0.80;;
10497;SDS011;5296;51.060;13.750;2024-02-23T14:39:34;1.77;;;1.10;;
10497;SDS011;5296;51.060;13.750;2024-02-23T14:44:36;2.97;;;1.05;;
10497;SDS011;5296;51.060;13.750;2024-02-23T14:49:38;0.75;;;0.75;;
10497;SDS011;5296;51.060;13.750;2024-02-23T14:54:40;1.50;;;0.95;;
10497;SDS011;5296;51.060;13.750;2024-02-23T14:59:42;1.45;;;0.98;;
10497;SDS011;5296;51.060;13.750;2024-02-23T15:04:48;1.30;;;1.20;;
10497;SDS011;5296;51.060;13.750;2024-02-23T15:09:50;2.38;;;1.10;;
10497;SDS011;5296;51.060;13.750;2024-02-23T15:14:52;1.42;;;0.98;;
10497;SDS011;5296;51.060;13.750;2024-02-23T15:19:53;1.08;;;0.80;;
10497;SDS011;5296;51.060;13.750;2024-02-23T15:24:55;1.52;;;1.00;;
10497;SDS011;5296;51.060;13.750;2024-02-23T15:29:59;1.73;;;1.10;;
10497;SDS011;5296;51.060;13.750;2024-02-23T15:35:01;2.58;;;0.95;;
10497;SDS011;5296;51.060;13.750;2024-02-23T15:40:04;2.65;;;1.08;;
10497;SDS011;5296;51.060;13.750;2024-02-23T15:45:07;1.73;;;1.13;;
10497;SDS011;5296;51.060;13.750;2024-02-23T15:50:09;1.50;;;1.10;;
10497;SDS011;5296;51.060;13.750;2024-02-23T15:55:31;3.58;;;1.10;;
10497;SDS011;5296;51.060;13.750;2024-02-23T16:00:32;2.60;;;1.20;;
10497;SDS011;5296;51.060;13.750;2024-02-23T16:05:34;3.95;;;1.05;;
10497;SDS011;5296;51.060;13.750;2024-02-23T16:10:36;2.30;;;1.00;;
10497;SDS011;5296;51.060;13.750;2024-02-23T16:15:38;2.67;;;1.20;;
10497;SDS011;5296;51.060;13.750;2024-02-23T16:20:39;3.95;;;1.30;;
10497;SDS011;5296;51.060;13.750;2024-02-23T16:25:41;2.85;;;1.10;;
10497;SDS011;5296;51.060;13.750;2024-02-23T16:30:43;2.45;;;1.48;;
10497;SDS011;5296;51.060;13.750;2024-02-23T16:35:45;2.22;;;1.40;;
10497;SDS011;5296;51.060;13.750;2024-02-23T16:40:47;2.25;;;1.60;;
10497;SDS011;5296;51.060;13.750;2024-02-23T16:45:49;5.50;;;1.48;;
10497;SDS011;5296;51.060;13.750;2024-02-23T16:50:50;3.75;;;1.45;;
10497;SDS011;5296;51.060;13.750;2024-02-23T16:55:53;2.42;;;1.60;;
10497;SDS011;5296;51.060;13.750;2024-02-23T17:00:58;2.78;;;1.50;;
10497;SDS011;5296;51.060;13.750;2024-02-23T17:06:04;4.07;;;1.60;;
10497;SDS011;5296;51.060;13.750;2024-02-23T17:11:06;2.13;;;1.30;;
10497;SDS011;5296;51.060;13.750;2024-02-23T17:16:08;1.80;;;1.35;;
10497;SDS011;5296;51.060;13.750;2024-02-23T17:21:10;4.10;;;2.17;;
10497;SDS011;5296;51.060;13.750;2024-02-23T17:26:11;3.65;;;1.50;;
10497;SDS011;5296;51.060;13.750;2024-02-23T17:31:13;4.05;;;1.67;;
10497;SDS011;5296;51.060;13.750;2024-02-23T17:36:14;3.33;;;1.58;;
10497;SDS011;5296;51.060;13.750;2024-02-23T17:41:16;3.45;;;1.52;;
10497;SDS011;5296;51.060;13.750;2024-02-23T17:46:22;3.10;;;1.40;;
10497;SDS011;5296;51.060;13.750;2024-02-23T17:51:24;1.73;;;1.40;;
10497;SDS011;5296;51.060;13.750;2024-02-23T17:56:26;3.25;;;1.80;;
10497;SDS011;5296;51.060;13.750;2024-02-23T18:01:28;2.28;;;1.63;;
10497;SDS011;5296;51.060;13.750;2024-02-23T18:06:30;2.65;;;1.60;;
10497;SDS011;5296;51.060;13.750;2024-02-23T18:11:32;4.18;;;1.77;;
10497;SDS011;5296;51.060;13.750;2024-02-23T18:16:36;4.18;;;1.80;;
10497;SDS011;5296;51.060;13.750;2024-02-23T18:21:39;3.33;;;2.22;;
10497;SDS011;5296;51.060;13.750;2024-02-23T18:26:41;4.82;;;2.25;;
10497;SDS011;5296;51.060;13.750;2024-02-23T18:31:43;4.32;;;2.35;;
10497;SDS011;5296;51.060;13.750;2024-02-23T18:36:46;3.90;;;2.38;;
10497;SDS011;5296;51.060;13.750;2024-02-23T18:41:47;4.30;;;2.72;;
10497;SDS011;5296;51.060;13.750;2024-02-23T18:46:49;4.60;;;2.67;;
10497;SDS011;5296;51.060;13.750;2024-02-23T18:51:51;3.13;;;2.25;;
10497;SDS011;5296;51.060;13.750;2024-02-23T18:56:53;5.50;;;2.92;;
10497;SDS011;5296;51.060;13.750;2024-02-23T19:01:54;4.00;;;3.10;;
10497;SDS011;5296;51.060;13.750;2024-02-23T19:06:56;5.93;;;3.95;;
10497;SDS011;5296;51.060;13.750;2024-02-23T19:11:58;8.00;;;3.97;;
10497;SDS011;5296;51.060;13.750;2024-02-23T19:17:01;6.82;;;4.38;;
10497;SDS011;5296;51.060;13.750;2024-02-23T19:22:03;7.53;;;5.90;;
10497;SDS011;5296;51.060;13.750;2024-02-23T19:27:05;10.93;;;7.28;;
10497;SDS011;5296;51.060;13.750;2024-02-23T19:32:08;7.57;;;5.80;;
10497;SDS011;5296;51.060;13.750;2024-02-23T19:37:10;10.00;;;5.30;;
10497;SDS011;5296;51.060;13.750;2024-02-23T19:42:11;6.22;;;4.63;;
10497;SDS011;5296;51.060;13.750;2024-02-23T19:47:15;7.43;;;4.43;;
10497;SDS011;5296;51.060;13.750;2024-02-23T19:52:17;6.93;;;4.60;;
10497;SDS011;5296;51.060;13.750;2024-02-23T19:57:18;7.15;;;4.25;;
10497;SDS011;5296;51.060;13.750;2024-02-23T20:02:20;4.28;;;3.85;;
10497;SDS011;5296;51.060;13.750;2024-02-23T20:07:22;5.57;;;4.18;;
10497;SDS011;5296;51.060;13.750;2024-02-23T20:12:24;10.57;;;6.55;;
10497;SDS011;5296;51.060;13.750;2024-02-23T20:17:26;9.82;;;6.18;;
10497;SDS011;5296;51.060;13.750;2024-02-23T20:22:30;8.80;;;4.60;;
10497;SDS011;5296;51.060;13.750;2024-02-23T20:27:32;6.97;;;4.30;;
10497;SDS011;5296;51.060;13.750;2024-02-23T20:32:33;5.63;;;4.03;;
10497;SDS011;5296;51.060;13.750;2024-02-23T20:37:35;5.32;;;3.50;;
10497;SDS011;5296;51.060;13.750;2024-02-23T20:42:38;7.93;;;4.30;;
10497;SDS011;5296;51.060;13.750;2024-02-23T20:47:41;8.40;;;4.53;;
10497;SDS011;5296;51.060;13.750;2024-02-23T20:52:43;5.35;;;3.80;;
10497;SDS011;5296;51.060;13.750;2024-02-23T20:57:45;5.43;;;3.67;;
10497;SDS011;5296;51.060;13.750;2024-02-23T21:02:46;7.43;;;4.00;;
10497;SDS011;5296;51.060;13.750;2024-02-23T21:07:48;6.95;;;3.85;;
10497;SDS011;5296;51.060;13.750;2024-02-23T21:12:51;5.65;;;3.55;;
10497;SDS011;5296;51.060;13.750;2024-02-23T21:17:53;5.70;;;4.15;;
10497;SDS011;5296;51.060;13.750;2024-02-23T21:22:55;5.80;;;3.95;;
10497;SDS011;5296;51.060;13.750;2024-02-23T21:27:56;6.90;;;4.15;;
10497;SDS011;5296;51.060;13.750;2024-02-23T21:32:58;6.60;;;3.83;;
10497;SDS011;5296;51.060;13.750;2024-02-23T21:38:00;4.88;;;3.28;;
10497;SDS011;5296;51.060;13.750;2024-02-23T21:43:02;5.95;;;3.55;;
10497;SDS011;5296;51.060;13.750;2024-02-23T21:48:04;6.13;;;3.55;;
10497;SDS011;5296;51.060;13.750;2024-02-23T21:53:06;7.55;;;3.50;;
10497;SDS011;5296;51.060;13.750;2024-02-23T21:58:08;4.57;;;3.53;;
10497;SDS011;5296;51.060;13.750;2024-02-23T22:03:10;5.13;;;3.70;;
10497;SDS011;5296;51.060;13.750;2024-02-23T22:08:12;5.82;;;3.58;;
10497;SDS011;5296;51.060;13.750;2024-02-23T22:13:14;3.50;;;3.10;;
10497;SDS011;5296;51.060;13.750;2024-02-23T22:18:16;5.53;;;3.42;;
10497;SDS011;5296;51.060;13.750;2024-02-23T22:23:17;5.05;;;3.25;;
10497;SDS011;5296;51.060;13.750;2024-02-23T22:28:19;4.65;;;3.65;;
10497;SDS011;5296;51.060;13.750;2024-02-23T22:33:21;8.18;;;3.85;;
10497;SDS011;5296;51.060;13.750;2024-02-23T22:38:23;4.28;;;3.30;;
10497;SDS011;5296;51.060;13.750;2024-02-23T22:43:25;4.75;;;3.50;;
10497;SDS011;5296;51.060;13.750;2024-02-23T22:48:28;3.95;;;3.13;;
10497;SDS011;5296;51.060;13.750;2024-02-23T22:53:30;5.28;;;3.78;;
10497;SDS011;5296;51.060;13.750;2024-02-23T22:58:34;4.47;;;3.30;;
10497;SDS011;5296;51.060;13.750;2024-02-23T23:03:35;4.55;;;3.35;;
10497;SDS011;5296;51.060;13.750;2024-02-23T23:08:37;4.97;;;3.30;;
10497;SDS011;5296;51.060;13.750;2024-02-23T23:13:39;3.83;;;3.10;;
10497;SDS011;5296;51.060;13.750;2024-02-23T23:18:41;4.97;;;3.25;;
10497;SDS011;5296;51.060;13.750;2024-02-23T23:23:44;5.57;;;3.47;;
10497;SDS011;5296;51.060;13.750;2024-02-23T23:28:45;4.75;;;3.35;;
10497;SDS011;5296;51.060;13.750;2024-02-23T23:33:47;5.85;;;3.38;;
10497;SDS011;5296;51.060;13.750;2024-02-23T23:38:49;5.65;;;3.33;;
10497;SDS011;5296;51.060;13.750;2024-02-23T23:43:50;5.07;;;3.42;;
10497;SDS011;5296;51.060;13.750;2024-02-23T23:48:52;4.53;;;3.40;;
10497;SDS011;5296;51.060;13.750;2024-02-23T23:53:54;6.63;;;3.47;;
10497;SDS011;5296;51.060;13.750;2024-02-23T23:58:56;5.57;;;3.38;;
